EEPU

Details ICAO EEPU (EPU)
Name PARNU
Region Estonia
Timezone Europe/Tallinn (UTC+2.0)
Plans Departing 7
Arriving 15
Stats Elevation 47 ft / 14 m (AMSL)
Location 58.418794° 24.472822°
Runways 1
Magnetic Variation 8.223° E
Sunrise 2017-12-16 07:07:40 UTC / 2017-12-16 09:07:40 Local
Sunset 2017-12-16 13:30:32 UTC / 2017-12-16 15:30:32 Local
Advertisement - Login to hide

Runways

ID Width Length Bearing (true) Bearing (mag) Surface Threshold Offset Overrun Length
03 148 ft / 45 m 8,122 ft / 2,475 m 35.28° 27.06° Concrete 0 ft / 0 m 0 ft / 0 m
21 148 ft / 45 m 8,122 ft / 2,475 m 215.30° 207.08° Concrete 0 ft / 0 m 0 ft / 0 m

Map

Weather


0- 5 10 15 20 25 30 35+ Temperature / ° C

Clouds and Precipitation
Forecast for 2017-12-16 12:00 UTC. Updated 2 hours ago

Ground ~20,000 ft ~40,000 ft Winds

METAR

EEPU 161250Z 16004KT 110V200 3600 BR OVC004 01/01 Q1000

TAF

Not found

Frequencies

Tower 132.00 MHz AFIS
Warning: Do not use this data for real-world aviation or navigation. No guarantee of current accuracy is given.